Time;durP1;ratioP1;P1;durP2;ratioP2;P2;SDS_P1;SDS_P2;PMS_P1;PMS_P2;Temp;Humidity;BMP_temperature;BMP_pressure;BME280_temperature;BME280_humidity;BME280_pressure;Samples;Min_cycle;Max_cycle;Signal;HPM_P1;HPM_P2
2023/03/07 00:00:43;;;;;;;29.67;19.35;;;11.80;88.80;;;;;;6244362;23;20012;-86
2023/03/07 00:03:13;;;;;;;30.35;19.73;;;11.70;89.30;;;;;;6247392;22;20000;-87
2023/03/07 00:05:39;;;;;;;30.83;18.60;;;11.70;89.00;;;;;;6248384;22;20331;-86
2023/03/07 00:08:05;;;;;;;29.48;19.60;;;11.70;89.20;;;;;;6246845;22;20011;-86
2023/03/07 00:10:31;;;;;;;32.45;19.33;;;11.70;89.10;;;;;;6246344;23;20035;-86
2023/03/07 00:12:56;;;;;;;27.30;19.25;;;11.70;89.20;;;;;;6246687;23;20004;-86
2023/03/07 00:15:22;;;;;;;30.65;19.75;;;11.70;89.20;;;;;;6247107;23;20000;-87
2023/03/07 00:17:48;;;;;;;28.88;18.73;;;11.70;89.30;;;;;;6246878;22;20031;-88
2023/03/07 00:20:14;;;;;;;35.42;22.08;;;11.70;89.40;;;;;;6246476;23;20338;-88
2023/03/07 00:22:40;;;;;;;29.42;19.45;;;11.60;89.60;;;;;;6248252;22;20453;-87
2023/03/07 00:25:07;;;;;;;31.42;20.02;;;11.60;89.70;;;;;;6246474;22;20000;-86
2023/03/07 00:27:33;;;;;;;31.73;20.65;;;11.60;90.00;;;;;;6246524;22;20138;-87
2023/03/07 00:29:59;;;;;;;33.22;20.50;;;11.60;90.00;;;;;;6246734;22;20000;-88
2023/03/07 00:32:25;;;;;;;28.98;18.80;;;11.60;90.00;;;;;;6246914;22;20011;-88
2023/03/07 00:34:51;;;;;;;28.25;19.20;;;11.60;90.10;;;;;;6246572;22;20018;-87
2023/03/07 00:37:17;;;;;;;28.65;18.98;;;11.60;90.10;;;;;;6247722;22;20082;-87
2023/03/07 00:39:43;;;;;;;28.58;19.25;;;11.60;90.10;;;;;;6247910;23;20485;-87
2023/03/07 00:42:08;;;;;;;33.63;20.02;;;11.60;90.20;;;;;;6246220;23;20001;-85
2023/03/07 00:44:34;;;;;;;28.27;18.55;;;11.60;90.20;;;;;;6247674;23;20008;-87
2023/03/07 00:47:00;;;;;;;29.10;19.45;;;11.60;90.20;;;;;;6249832;23;20007;-86
2023/03/07 00:49:26;;;;;;;33.83;20.42;;;11.60;90.10;;;;;;6250366;22;20004;-86
2023/03/07 00:51:52;;;;;;;32.22;19.48;;;11.60;90.10;;;;;;6250160;23;20004;-87
2023/03/07 00:54:18;;;;;;;28.17;18.52;;;11.60;90.10;;;;;;6251577;22;20020;-88
2023/03/07 00:56:43;;;;;;;28.52;18.75;;;11.60;90.20;;;;;;6256489;23;20000;-88
2023/03/07 00:59:10;;;;;;;29.15;20.70;;;11.60;90.20;;;;;;6254290;23;20378;-88
2023/03/07 01:01:36;;;;;;;30.60;20.65;;;11.60;90.20;;;;;;6252122;22;20000;-88
2023/03/07 01:04:02;;;;;;;32.50;20.58;;;11.50;90.20;;;;;;6255430;22;20000;-87
2023/03/07 01:06:30;;;;;;;30.75;19.23;;;11.50;90.20;;;;;;6248879;22;19996;-88
2023/03/07 01:08:58;;;;;;;33.28;19.73;;;11.50;90.30;;;;;;6250345;22;19996;-88
2023/03/07 01:11:25;;;;;;;29.85;19.17;;;11.40;90.30;;;;;;6253004;22;20067;-87
2023/03/07 01:13:54;;;;;;;32.63;20.35;;;11.40;90.30;;;;;;6255994;22;20011;-88
2023/03/07 01:16:26;;;;;;;29.97;21.37;;;11.40;90.40;;;;;;6239175;23;20051;-88
2023/03/07 01:18:55;;;;;;;28.80;19.92;;;11.40;90.50;;;;;;6247993;23;20285;-87
2023/03/07 01:21:23;;;;;;;26.67;18.88;;;11.30;90.30;;;;;;6251509;22;20027;-87
2023/03/07 01:23:50;;;;;;;28.50;19.48;;;11.40;90.50;;;;;;6251980;22;20000;-87
2023/03/07 01:26:19;;;;;;;30.85;19.48;;;11.40;90.50;;;;;;6252500;22;20008;-87
2023/03/07 01:28:45;;;;;;;32.13;20.75;;;11.30;90.40;;;;;;6249327;22;20028;-87
2023/03/07 01:31:12;;;;;;;27.52;19.17;;;11.30;90.40;;;;;;6252011;22;20011;-87
2023/03/07 01:33:38;;;;;;;32.40;21.02;;;11.30;90.40;;;;;;6252788;22;20000;-88
2023/03/07 01:36:04;;;;;;;31.67;20.88;;;11.20;90.40;;;;;;6247955;23;20011;-87
2023/03/07 01:38:32;;;;;;;29.48;20.17;;;11.20;90.40;;;;;;6252667;22;20079;-87
2023/03/07 01:41:01;;;;;;;30.88;20.75;;;11.20;90.40;;;;;;6250382;22;20000;-87
2023/03/07 01:43:32;;;;;;;28.55;18.60;;;11.10;90.40;;;;;;6252285;22;20407;-88
2023/03/07 01:46:16;;;;;;;34.97;21.10;;;11.10;90.40;;;;;;6250040;22;20031;-87
2023/03/07 01:49:11;;;;;;;35.28;21.77;;;11.00;90.40;;;;;;6248924;23;20000;-86
2023/03/07 01:51:39;;;;;;;33.97;20.85;;;11.00;90.40;;;;;;6239453;23;20004;-85
2023/03/07 01:54:07;;;;;;;27.15;19.02;;;10.90;90.30;;;;;;6251011;22;20461;-87
2023/03/07 01:56:35;;;;;;;31.60;19.38;;;10.80;90.40;;;;;;6249200;22;20446;-87
2023/03/07 01:59:01;;;;;;;36.00;21.75;;;10.80;90.50;;;;;;6249264;22;20004;-87
2023/03/07 02:01:27;;;;;;;33.50;21.02;;;10.80;90.60;;;;;;6248993;22;20445;-87
2023/03/07 02:04:09;;;;;;;34.05;22.63;;;10.70;90.40;;;;;;6249058;22;20050;-87
2023/03/07 02:06:37;;;;;;;33.90;20.45;;;10.70;90.60;;;;;;6247452;22;20000;-85
2023/03/07 02:09:12;;;;;;;36.75;22.15;;;10.70;90.60;;;;;;6246603;22;20007;-85
2023/03/07 02:11:40;;;;;;;32.38;21.52;;;10.60;90.70;;;;;;6246509;22;20414;-85
2023/03/07 02:14:06;;;;;;;34.20;22.17;;;10.50;90.50;;;;;;6246532;22;20094;-85
2023/03/07 02:16:32;;;;;;;31.95;21.08;;;10.50;90.70;;;;;;6247039;23;20031;-85
2023/03/07 02:18:57;;;;;;;34.03;21.38;;;10.50;90.80;;;;;;6246802;23;20433;-85
2023/03/07 02:21:42;;;;;;;31.95;20.88;;;10.50;90.80;;;;;;6245690;23;20004;-86
2023/03/07 02:24:18;;;;;;;29.95;20.27;;;10.30;91.20;;;;;;6246461;22;20024;-86
2023/03/07 02:26:52;;;;;;;29.65;20.73;;;10.30;91.00;;;;;;6246506;22;20028;-85
2023/03/07 02:29:18;;;;;;;33.25;21.85;;;10.30;90.90;;;;;;6246863;22;20015;-86
2023/03/07 02:31:43;;;;;;;32.15;21.73;;;10.30;91.10;;;;;;6246465;22;20028;-87
2023/03/07 02:34:23;;;;;;;31.17;20.63;;;10.30;91.10;;;;;;6246614;23;20011;-85
2023/03/07 02:37:03;;;;;;;37.10;20.00;;;10.30;91.10;;;;;;6246170;22;20032;-85
2023/03/07 02:39:29;;;;;;;;;;;10.30;91.10;;;;;;6247093;22;19997;-86
2023/03/07 02:42:00;;;;;;;30.58;19.80;;;10.20;91.10;;;;;;6246282;22;19899;-85
2023/03/07 02:44:26;;;;;;;31.73;20.45;;;10.20;91.10;;;;;;6246309;22;20011;-87
2023/03/07 02:46:52;;;;;;;33.95;20.40;;;10.20;91.20;;;;;;6246016;23;20008;-88
2023/03/07 02:49:17;;;;;;;34.08;22.02;;;10.20;91.20;;;;;;6246583;23;20015;-87
2023/03/07 02:51:43;;;;;;;32.38;21.15;;;10.10;91.20;;;;;;6244920;23;20414;-87
2023/03/07 02:54:09;;;;;;;32.33;20.05;;;10.20;91.20;;;;;;6246349;23;20071;-87
2023/03/07 02:56:34;;;;;;;32.47;20.05;;;10.10;91.20;;;;;;6246636;23;20470;-88
2023/03/07 02:59:00;;;;;;;30.00;21.27;;;10.20;90.90;;;;;;6246432;22;20000;-87
2023/03/07 03:01:26;;;;;;;30.77;20.92;;;10.20;91.10;;;;;;6245640;22;20008;-87
2023/03/07 03:03:52;;;;;;;35.08;21.05;;;10.10;91.10;;;;;;6246279;22;20067;-88
2023/03/07 03:06:17;;;;;;;28.83;20.67;;;10.10;91.10;;;;;;6246035;22;20477;-86
2023/03/07 03:08:43;;;;;;;28.55;20.23;;;10.10;91.00;;;;;;6245976;23;20000;-86
2023/03/07 03:11:09;;;;;;;28.73;20.33;;;10.10;91.10;;;;;;6245371;22;20012;-86
2023/03/07 03:13:34;;;;;;;29.25;19.52;;;10.10;91.10;;;;;;6246085;23;20079;-86
2023/03/07 03:16:00;;;;;;;29.10;20.27;;;10.00;90.80;;;;;;6246039;23;20015;-85
2023/03/07 03:18:30;;;;;;;31.00;20.77;;;10.10;91.00;;;;;;6246042;23;20027;-86
2023/03/07 03:20:56;;;;;;;32.58;21.05;;;10.10;91.10;;;;;;6246109;22;20004;-87
2023/03/07 03:23:22;;;;;;;33.17;20.88;;;10.00;90.80;;;;;;6244807;23;20018;-86
2023/03/07 03:25:59;;;;;;;39.78;23.45;;;10.00;91.00;;;;;;6245901;22;20027;-87
2023/03/07 03:28:25;;;;;;;32.05;21.40;;;10.00;91.00;;;;;;6245998;22;20067;-87
2023/03/07 03:31:08;;;;;;;34.17;20.85;;;10.00;91.00;;;;;;6246145;22;20351;-88
2023/03/07 03:33:34;;;;;;;31.02;20.83;;;9.90;91.00;;;;;;6245817;22;20004;-88
2023/03/07 03:36:05;;;;;;;29.45;20.08;;;10.00;91.10;;;;;;6245623;22;20007;-87
2023/03/07 03:38:32;;;;;;;31.15;21.65;;;9.90;91.10;;;;;;6245675;22;20015;-87
2023/03/07 03:40:58;;;;;;;33.00;21.23;;;9.90;91.10;;;;;;6246237;22;19996;-88
2023/03/07 03:43:24;;;;;;;27.88;19.65;;;10.00;91.10;;;;;;6246199;22;20414;-88
2023/03/07 03:45:57;;;;;;;32.67;21.73;;;9.90;91.10;;;;;;6245777;23;20035;-89
2023/03/07 03:48:23;;;;;;;32.50;20.88;;;9.90;91.10;;;;;;6245667;22;20492;-89
2023/03/07 03:50:48;;;;;;;32.47;21.45;;;9.90;91.00;;;;;;6245903;22;20004;-89
2023/03/07 03:53:14;;;;;;;32.78;21.60;;;10.00;91.30;;;;;;6246482;23;20383;-89
2023/03/07 03:55:40;;;;;;;33.03;23.42;;;10.00;91.30;;;;;;6246217;22;20417;-89
2023/03/07 03:58:06;;;;;;;31.77;20.95;;;10.00;91.10;;;;;;6246034;22;20000;-88
2023/03/07 04:00:31;;;;;;;35.08;22.85;;;10.00;91.00;;;;;;6245199;23;20050;-88
2023/03/07 04:02:57;;;;;;;30.38;20.60;;;10.00;91.00;;;;;;6244840;23;20003;-88
2023/03/07 04:05:22;;;;;;;37.13;22.42;;;10.00;91.00;;;;;;6245791;23;20003;-88
2023/03/07 04:07:48;;;;;;;35.88;22.20;;;10.00;90.90;;;;;;6245933;23;19996;-89
2023/03/07 04:10:14;;;;;;;36.08;22.60;;;9.90;90.90;;;;;;6245081;22;20004;-85
2023/03/07 04:12:40;;;;;;;31.23;21.20;;;9.90;91.00;;;;;;6244050;23;20011;-85
2023/03/07 04:15:07;;;;;;;30.98;22.00;;;9.90;91.10;;;;;;6245515;22;19996;-85
2023/03/07 04:17:33;;;;;;;35.05;22.88;;;9.90;91.10;;;;;;6245863;22;20053;-85
2023/03/07 04:19:59;;;;;;;31.35;21.83;;;9.80;91.10;;;;;;6244292;22;20024;-86
2023/03/07 04:22:24;;;;;;;39.80;25.23;;;9.80;91.10;;;;;;6245628;23;19996;-85
2023/03/07 04:24:50;;;;;;;34.50;21.85;;;9.70;91.30;;;;;;6245483;23;20006;-84
2023/03/07 04:27:16;;;;;;;27.80;19.70;;;9.70;91.30;;;;;;6245162;23;20083;-84
2023/03/07 04:29:42;;;;;;;31.73;20.13;;;9.70;91.30;;;;;;6244386;22;20008;-84
2023/03/07 04:32:07;;;;;;;31.90;21.48;;;9.70;91.30;;;;;;6244768;23;20000;-86
2023/03/07 04:34:33;;;;;;;33.05;22.50;;;9.70;91.30;;;;;;6244899;23;20031;-86
2023/03/07 04:36:59;;;;;;;32.47;20.70;;;9.70;91.20;;;;;;6242945;23;20100;-86
2023/03/07 04:39:25;;;;;;;38.08;23.23;;;9.80;91.20;;;;;;6247454;23;19996;-84
2023/03/07 04:41:50;;;;;;;31.85;20.90;;;9.70;91.20;;;;;;6245787;22;20415;-84
2023/03/07 04:44:16;;;;;;;35.50;22.52;;;9.80;91.20;;;;;;6245045;23;20028;-86
2023/03/07 04:46:42;;;;;;;35.90;22.15;;;9.80;91.20;;;;;;6245178;22;20000;-85
2023/03/07 04:49:08;;;;;;;32.75;21.52;;;9.80;91.30;;;;;;6244621;23;20015;-86
2023/03/07 04:51:33;;;;;;;31.48;20.70;;;9.80;91.20;;;;;;6243157;23;20008;-85
2023/03/07 04:53:59;;;;;;;29.98;20.33;;;9.80;91.20;;;;;;6245580;23;20001;-88
2023/03/07 04:56:25;;;;;;;30.65;19.75;;;9.80;91.00;;;;;;6245220;22;20000;-87
2023/03/07 04:58:50;;;;;;;36.25;23.95;;;9.80;91.10;;;;;;6243553;23;20366;-87
2023/03/07 05:01:16;;;;;;;28.85;19.65;;;9.70;91.40;;;;;;6244975;23;20004;-87
2023/03/07 05:03:42;;;;;;;34.78;21.13;;;9.70;91.30;;;;;;6244654;22;20000;-87
2023/03/07 05:06:12;;;;;;;34.55;21.55;;;9.70;91.20;;;;;;6245510;22;20000;-86
2023/03/07 05:08:38;;;;;;;29.23;19.98;;;9.70;91.40;;;;;;6244951;22;20026;-88
2023/03/07 05:11:04;;;;;;;31.08;20.77;;;9.70;91.30;;;;;;6244222;23;20442;-88
2023/03/07 05:13:29;;;;;;;32.53;21.52;;;9.70;91.30;;;;;;6245546;22;20000;-89
2023/03/07 05:15:57;;;;;;;38.80;23.13;;;9.70;91.30;;;;;;6244961;22;20009;-87
2023/03/07 05:18:23;;;;;;;29.90;20.92;;;9.80;91.30;;;;;;6243223;22;20421;-86
2023/03/07 05:20:49;;;;;;;35.80;20.33;;;9.90;91.20;;;;;;6245092;22;19996;-90
2023/03/07 05:23:14;;;;;;;31.83;21.10;;;9.90;91.10;;;;;;6244624;22;20304;-89
2023/03/07 05:25:41;;;;;;;33.55;22.15;;;;;;;;;;6244732;22;20004;-89
2023/03/07 05:28:06;;;;;;;37.25;21.77;;;10.00;90.80;;;;;;6242348;23;20000;-89
2023/03/07 05:30:33;;;;;;;32.00;21.17;;;10.00;90.80;;;;;;6244943;22;20000;-90
2023/03/07 05:32:58;;;;;;;31.60;21.23;;;10.00;91.00;;;;;;6243887;23;20000;-90
2023/03/07 05:35:24;;;;;;;32.58;22.17;;;10.00;91.00;;;;;;6244043;23;20027;-90
2023/03/07 05:37:51;;;;;;;30.92;21.50;;;10.00;90.90;;;;;;6245842;22;19935;-90
2023/03/07 05:40:17;;;;;;;29.98;21.60;;;10.00;90.90;;;;;;6245006;22;19996;-91
2023/03/07 05:42:43;;;;;;;32.17;20.48;;;10.00;90.80;;;;;;6245378;22;20007;-91
2023/03/07 05:45:09;;;;;;;33.20;21.27;;;10.00;90.80;;;;;;6245349;22;20020;-86
2023/03/07 05:47:35;;;;;;;31.70;21.02;;;10.00;90.60;;;;;;6245493;22;20070;-86
2023/03/07 05:50:01;;;;;;;35.50;22.17;;;10.00;90.80;;;;;;6244836;23;20418;-86
2023/03/07 05:52:27;;;;;;;32.17;20.88;;;10.00;90.80;;;;;;6244793;22;20008;-87
2023/03/07 05:54:54;;;;;;;34.45;21.95;;;9.90;90.90;;;;;;6244377;22;20134;-87
2023/03/07 05:57:20;;;;;;;33.58;21.65;;;9.90;90.70;;;;;;6244262;22;20138;-87
2023/03/07 05:59:46;;;;;;;35.53;22.48;;;9.90;90.70;;;;;;6244967;22;20004;-87
2023/03/07 06:02:12;;;;;;;37.90;22.98;;;9.90;90.80;;;;;;6245407;23;20075;-87
2023/03/07 06:04:37;;;;;;;32.42;22.42;;;9.90;91.00;;;;;;6245992;22;20003;-81
2023/03/07 06:07:03;;;;;;;35.80;22.80;;;10.00;91.10;;;;;;6245236;23;20063;-82
2023/03/07 06:09:29;;;;;;;32.85;22.15;;;10.00;91.00;;;;;;6246238;23;20450;-81
2023/03/07 06:11:54;;;;;;;33.38;22.33;;;10.10;90.90;;;;;;6246788;23;20019;-81
2023/03/07 06:14:20;;;;;;;32.20;21.83;;;10.00;90.80;;;;;;6244785;23;20015;-81
2023/03/07 06:16:45;;;;;;;31.23;20.33;;;10.00;90.70;;;;;;6245502;23;20008;-81
2023/03/07 06:19:11;;;;;;;31.17;21.40;;;10.00;90.70;;;;;;6245973;23;20327;-84
2023/03/07 06:21:37;;;;;;;34.90;21.27;;;10.00;90.70;;;;;;6246096;23;20407;-84
2023/03/07 06:24:03;;;;;;;36.55;23.98;;;10.00;91.10;;;;;;6245597;23;20407;-84
2023/03/07 06:26:29;;;;;;;38.28;23.50;;;10.00;90.90;;;;;;6245699;22;20399;-85
2023/03/07 06:28:54;;;;;;;33.38;22.73;;;10.00;90.90;;;;;;6243116;23;20007;-84
2023/03/07 06:31:21;;;;;;;38.90;23.40;;;10.00;90.90;;;;;;6244736;23;20411;-83
2023/03/07 06:33:47;;;;;;;34.33;23.17;;;9.90;91.00;;;;;;6246870;23;20004;-82
2023/03/07 06:36:15;;;;;;;33.80;22.55;;;9.90;91.00;;;;;;6246204;22;20008;-81
2023/03/07 06:38:41;;;;;;;34.15;22.30;;;9.90;91.10;;;;;;6246200;22;20016;-83
2023/03/07 06:41:07;;;;;;;31.73;22.38;;;9.90;91.20;;;;;;6246124;22;20441;-83
2023/03/07 06:43:33;;;;;;;36.55;22.90;;;9.90;91.20;;;;;;6247032;22;20000;-83
2023/03/07 06:45:59;;;;;;;41.67;27.42;;;9.90;91.20;;;;;;6245714;23;20083;-84
2023/03/07 06:48:25;;;;;;;29.85;21.35;;;9.90;91.20;;;;;;6245223;22;20004;-86
2023/03/07 06:50:50;;;;;;;29.92;20.80;;;9.80;91.30;;;;;;6246113;23;20034;-86
2023/03/07 06:53:16;;;;;;;35.97;23.95;;;9.90;91.40;;;;;;6234490;23;20036;-78
2023/03/07 06:55:42;;;;;;;36.80;22.83;;;9.90;91.40;;;;;;6244945;23;20005;-78
2023/03/07 06:58:08;;;;;;;38.40;25.23;;;9.90;91.30;;;;;;6246478;23;20000;-79
2023/03/07 07:00:34;;;;;;;40.72;24.30;;;;;;;;;;6246317;23;20000;-79
2023/03/07 07:03:00;;;;;;;37.08;22.38;;;10.00;91.40;;;;;;6246285;23;20394;-78
2023/03/07 07:05:25;;;;;;;30.55;21.30;;;10.00;91.40;;;;;;6246095;23;20003;-78
2023/03/07 07:07:51;;;;;;;36.80;22.13;;;10.10;91.20;;;;;;6246656;22;20007;-80
2023/03/07 07:10:17;;;;;;;38.33;25.00;;;10.20;91.40;;;;;;6246322;23;20019;-79
2023/03/07 07:12:43;;;;;;;36.42;23.45;;;10.20;91.50;;;;;;6246284;23;20011;-79
2023/03/07 07:15:09;;;;;;;37.42;22.98;;;10.20;91.40;;;;;;6246097;23;20084;-78
2023/03/07 07:17:35;;;;;;;30.50;21.55;;;10.20;91.40;;;;;;6246000;23;20053;-79
2023/03/07 07:20:03;;;;;;;36.08;22.73;;;10.20;91.20;;;;;;6246338;22;20414;-77
2023/03/07 07:22:29;;;;;;;33.80;22.88;;;10.40;91.50;;;;;;6246477;22;20403;-78
2023/03/07 07:24:55;;;;;;;34.30;21.13;;;10.40;91.40;;;;;;6246450;22;20000;-87
2023/03/07 07:27:21;;;;;;;30.13;21.58;;;10.60;91.10;;;;;;6247547;23;20000;-84
2023/03/07 07:29:46;;;;;;;32.75;22.52;;;10.60;91.20;;;;;;6245869;23;20008;-86
2023/03/07 07:32:12;;;;;;;31.38;21.73;;;10.70;90.90;;;;;;6245210;23;20082;-83
2023/03/07 07:34:37;;;;;;;33.00;22.98;;;10.80;91.00;;;;;;6244908;23;20007;-83
2023/03/07 07:37:03;;;;;;;32.38;20.10;;;10.80;91.00;;;;;;6246003;23;20015;-86
2023/03/07 07:39:29;;;;;;;32.47;22.10;;;10.90;91.20;;;;;;6246709;22;20000;-87
2023/03/07 07:41:54;;;;;;;30.77;19.92;;;10.90;90.90;;;;;;6245546;23;19997;-88
2023/03/07 07:44:20;;;;;;;31.65;21.08;;;11.00;91.00;;;;;;6245948;23;20054;-85
2023/03/07 07:46:46;;;;;;;31.17;21.33;;;11.10;90.80;;;;;;6245516;23;20028;-88
2023/03/07 07:49:11;;;;;;;32.67;22.02;;;11.20;91.00;;;;;;6245285;23;20019;-85
2023/03/07 07:51:39;;;;;;;32.15;21.38;;;11.40;90.80;;;;;;6246191;23;20004;-85
2023/03/07 07:54:05;;;;;;;34.00;21.30;;;11.40;90.90;;;;;;6244658;23;20095;-85
2023/03/07 07:56:31;;;;;;;32.70;21.20;;;11.60;90.70;;;;;;6246097;22;20353;-82
2023/03/07 07:58:57;;;;;;;29.77;20.65;;;11.70;90.30;;;;;;6246391;23;20091;-83
2023/03/07 08:01:26;;;;;;;32.30;20.92;;;11.70;90.40;;;;;;6246490;23;20009;-89
2023/03/07 08:03:52;;;;;;;32.95;20.77;;;11.80;90.20;;;;;;6246697;23;20004;-88
2023/03/07 08:06:20;;;;;;;27.98;19.55;;;12.00;90.10;;;;;;6246252;22;20000;-88
2023/03/07 08:08:46;;;;;;;36.22;21.88;;;12.00;90.30;;;;;;6245773;22;20095;-85
2023/03/07 08:11:13;;;;;;;39.00;23.20;;;12.10;90.20;;;;;;6245119;22;20007;-87
2023/03/07 08:13:38;;;;;;;37.67;23.38;;;12.20;90.10;;;;;;6246157;22;20045;-87
2023/03/07 08:16:31;;;;;;;38.70;24.08;;;12.30;90.00;;;;;;6246481;23;20008;-87
2023/03/07 08:18:57;;;;;;;44.30;24.48;;;12.40;89.40;;;;;;6248131;23;20011;-86
2023/03/07 08:21:24;;;;;;;37.08;23.67;;;12.40;89.10;;;;;;6246201;23;19996;-88
2023/03/07 08:23:52;;;;;;;36.42;23.60;;;12.50;89.20;;;;;;6245618;22;19996;-86
2023/03/07 08:26:18;;;;;;;41.25;24.52;;;12.50;88.90;;;;;;6244149;23;20151;-87
2023/03/07 08:28:44;;;;;;;38.00;23.27;;;12.60;88.70;;;;;;6246673;23;20093;-87
2023/03/07 08:31:15;;;;;;;39.67;22.50;;;12.60;88.70;;;;;;6246852;22;20004;-87
2023/03/07 08:33:42;;;;;;;44.47;24.52;;;12.70;88.70;;;;;;6246823;22;20023;-84
2023/03/07 08:36:08;;;;;;;39.10;23.30;;;12.80;88.50;;;;;;6247864;22;20027;-86
2023/03/07 08:38:34;;;;;;;37.42;22.50;;;12.90;87.90;;;;;;6247460;22;19997;-87
2023/03/07 08:41:04;;;;;;;39.30;22.70;;;12.90;88.20;;;;;;6243402;22;20078;-85
2023/03/07 08:43:32;;;;;;;33.22;22.48;;;13.00;88.10;;;;;;6247687;22;20005;-88
2023/03/07 08:45:58;;;;;;;36.78;23.33;;;13.00;88.10;;;;;;6246422;22;20000;-89
2023/03/07 08:48:25;;;;;;;41.40;23.65;;;13.10;88.10;;;;;;6246338;22;20427;-86
2023/03/07 08:50:51;;;;;;;34.05;21.90;;;13.20;87.60;;;;;;6247270;22;20008;-87
2023/03/07 08:53:17;;;;;;;36.20;23.52;;;13.30;88.00;;;;;;6247753;23;20010;-88
2023/03/07 08:55:43;;;;;;;37.35;23.95;;;13.40;87.70;;;;;;6248542;22;20369;-87
2023/03/07 08:58:09;;;;;;;36.78;23.23;;;13.50;87.10;;;;;;6248029;23;20075;-87
2023/03/07 09:00:36;;;;;;;37.25;21.70;;;13.60;87.10;;;;;;6250017;22;19996;-88
2023/03/07 09:03:02;;;;;;;29.98;21.10;;;13.60;86.90;;;;;;6246007;23;20446;-88
2023/03/07 09:05:28;;;;;;;38.78;25.35;;;13.70;87.00;;;;;;6254816;22;20023;-88
2023/03/07 09:07:55;;;;;;;42.75;25.52;;;13.80;86.20;;;;;;6250038;23;20373;-88
2023/03/07 09:10:21;;;;;;;36.33;24.77;;;13.80;86.50;;;;;;6248317;22;20070;-88
2023/03/07 09:12:47;;;;;;;42.42;24.98;;;13.90;86.50;;;;;;6248115;22;20427;-87
2023/03/07 09:15:13;;;;;;;40.50;26.63;;;13.90;86.40;;;;;;6253163;22;20005;-89
2023/03/07 09:17:39;;;;;;;42.78;27.70;;;14.00;86.10;;;;;;6250405;23;20005;-90
2023/03/07 09:20:06;;;;;;;38.65;27.45;;;14.00;85.30;;;;;;6248250;23;20032;-89
2023/03/07 09:22:31;;;;;;;40.75;27.20;;;14.10;85.70;;;;;;6247969;22;20003;-89
2023/03/07 09:24:57;;;;;;;43.50;28.55;;;14.00;85.20;;;;;;6247913;23;20000;-87
2023/03/07 09:27:23;;;;;;;44.83;27.45;;;14.20;85.30;;;;;;6248473;23;20004;-88
2023/03/07 09:29:49;;;;;;;41.85;28.70;;;14.20;85.60;;;;;;6247605;22;20024;-88
2023/03/07 09:32:15;;;;;;;46.20;28.63;;;14.30;85.40;;;;;;6246922;23;20284;-87
2023/03/07 09:34:41;;;;;;;48.72;28.65;;;14.40;85.50;;;;;;6247164;23;20008;-85
2023/03/07 09:37:06;;;;;;;42.53;28.05;;;14.50;85.00;;;;;;6246102;23;20334;-78
2023/03/07 09:39:32;;;;;;;42.30;25.13;;;14.60;85.00;;;;;;6245981;23;20045;-79
2023/03/07 09:42:27;;;;;;;47.20;27.65;;;14.80;85.50;;;;;;6247459;22;20004;-79
2023/03/07 09:45:02;;;;;;;40.05;23.95;;;15.00;85.20;;;;;;6244949;23;20008;-79
2023/03/07 09:47:53;;;;;;;44.40;26.80;;;15.20;85.50;;;;;;6246926;22;20000;-78
2023/03/07 09:50:39;;;;;;;45.38;27.25;;;15.50;84.30;;;;;;6246796;23;20501;-88
2023/03/07 09:53:18;;;;;;;46.05;26.50;;;15.60;84.00;;;;;;6273779;22;20004;-89
2023/03/07 09:55:44;;;;;;;40.72;27.25;;;15.90;82.20;;;;;;6246831;22;20028;-80
2023/03/07 09:58:17;;;;;;;41.20;27.27;;;15.90;82.70;;;;;;6244849;22;20004;-80
2023/03/07 10:00:47;;;;;;;40.83;27.20;;;16.20;81.00;;;;;;6246284;22;20000;-79
2023/03/07 10:03:34;;;;;;;43.20;26.20;;;16.10;81.00;;;;;;6247094;22;19996;-79
2023/03/07 10:06:09;;;;;;;44.58;26.70;;;16.30;81.10;;;;;;6247007;22;20094;-79
2023/03/07 10:08:36;;;;;;;50.35;26.40;;;16.40;80.90;;;;;;6247085;22;20004;-78
2023/03/07 10:11:07;;;;;;;40.10;25.77;;;16.50;80.70;;;;;;6246075;22;20457;-79
2023/03/07 10:13:39;;;;;;;43.78;26.33;;;16.70;80.00;;;;;;6246368;23;20075;-80
2023/03/07 10:16:39;;;;;;;41.25;24.38;;;16.80;79.10;;;;;;6246442;22;20031;-80
2023/03/07 10:19:34;;;;;;;44.03;23.98;;;16.70;77.70;;;;;;6235544;23;20058;-80
2023/03/07 10:22:26;;;;;;;36.88;22.25;;;16.60;78.40;;;;;;6247002;22;20029;-80
2023/03/07 10:24:58;;;;;;;40.38;23.10;;;16.60;78.90;;;;;;6245446;23;20035;-80
2023/03/07 10:27:26;;;;;;;36.80;23.20;;;16.70;79.00;;;;;;6247381;22;20054;-79
2023/03/07 10:29:54;;;;;;;34.28;22.77;;;16.90;79.40;;;;;;6247501;22;20004;-80
2023/03/07 10:32:32;;;;;;;34.13;23.73;;;17.10;78.80;;;;;;6247754;22;20458;-80
2023/03/07 10:35:14;;;;;;;36.33;24.83;;;17.30;77.40;;;;;;6247740;23;20000;-85
2023/03/07 10:37:50;;;;;;;42.95;24.05;;;17.40;75.30;;;;;;6247664;22;20011;-85
2023/03/07 10:40:34;;;;;;;38.90;26.35;;;17.40;74.40;;;;;;6248822;23;19996;-87
2023/03/07 10:43:00;;;;;;;34.67;24.85;;;17.30;73.50;;;;;;6248705;23;20004;-88
2023/03/07 10:45:33;;;;;;;39.70;25.55;;;17.30;73.40;;;;;;6248666;22;20023;-89
2023/03/07 10:48:05;;;;;;;46.58;27.35;;;17.20;73.50;;;;;;6220180;22;20453;-86
2023/03/07 10:50:45;;;;;;;42.58;27.15;;;17.30;74.40;;;;;;6242769;22;20008;-85
2023/03/07 10:53:29;;;;;;;39.83;26.60;;;17.40;74.80;;;;;;6247429;22;20018;-86
2023/03/07 10:56:15;;;;;;;37.88;27.05;;;17.30;74.50;;;;;;6247567;22;20246;-86
2023/03/07 10:58:59;;;;;;;40.28;26.90;;;17.30;74.90;;;;;;6247521;22;20007;-84
2023/03/07 11:01:26;;;;;;;34.38;24.95;;;17.30;75.20;;;;;;6247354;23;20426;-85
2023/03/07 11:04:21;;;;;;;43.63;27.80;;;17.30;75.00;;;;;;6247174;22;20003;-90
2023/03/07 11:06:55;;;;;;;41.60;28.02;;;17.20;75.30;;;;;;6248083;23;20015;-87
2023/03/07 11:09:32;;;;;;;40.70;28.15;;;17.20;75.10;;;;;;6246675;23;20453;-87
2023/03/07 11:12:04;;;;;;;44.65;29.08;;;17.10;75.40;;;;;;6245757;22;20007;-86
2023/03/07 11:14:56;;;;;;;45.92;30.92;;;17.20;76.00;;;;;;6245529;23;20000;-87
2023/03/07 11:17:29;;;;;;;39.80;28.02;;;17.30;75.60;;;;;;6246748;22;20014;-88
2023/03/07 11:19:58;;;;;;;45.80;29.92;;;17.20;75.00;;;;;;6247242;22;20469;-87
2023/03/07 11:22:34;;;;;;;41.72;28.42;;;17.30;75.30;;;;;;6246813;22;20426;-87
2023/03/07 11:25:17;;;;;;;48.72;29.17;;;17.40;75.50;;;;;;6245810;22;19996;-85
2023/03/07 11:27:56;;;;;;;39.30;27.10;;;17.50;75.50;;;;;;6245808;22;20054;-87
2023/03/07 11:30:40;;;;;;;42.30;28.70;;;17.70;75.40;;;;;;6247504;22;20426;-88
2023/03/07 11:33:29;;;;;;;40.33;30.08;;;18.00;74.50;;;;;;6245697;23;20079;-87
2023/03/07 11:36:09;;;;;;;44.13;29.23;;;18.20;74.00;;;;;;6244642;23;20083;-79
2023/03/07 11:38:53;;;;;;;;;;;18.40;73.60;;;;;;6245759;22;20050;-79
2023/03/07 11:41:30;;;;;;;36.40;25.77;;;18.60;72.80;;;;;;6244820;23;19953;-80
2023/03/07 11:44:10;;;;;;;38.15;28.52;;;19.00;72.20;;;;;;6244632;22;20039;-79
2023/03/07 11:46:51;;;;;;;43.92;31.20;;;19.00;72.20;;;;;;6244431;22;20010;-80
2023/03/07 11:49:44;;;;;;;46.20;31.75;;;19.20;70.70;;;;;;6245251;23;20008;-89
2023/03/07 11:52:23;;;;;;;40.78;30.17;;;19.50;69.80;;;;;;6243270;23;20031;-86
2023/03/07 11:54:57;;;;;;;41.08;28.50;;;20.40;68.80;;;;;;6245020;22;20000;-87
2023/03/07 11:57:38;;;;;;;40.72;28.35;;;21.30;66.60;;;;;;6245513;23;20058;-87
2023/03/07 12:00:19;;;;;;;40.03;28.23;;;22.30;63.00;;;;;;6243890;22;20016;-87
2023/03/07 12:02:50;;;;;;;35.63;26.70;;;22.70;59.70;;;;;;6245027;23;20614;-87
2023/03/07 12:05:29;;;;;;;32.92;26.30;;;22.70;59.50;;;;;;6246222;23;20000;-87
2023/03/07 12:08:10;;;;;;;33.25;26.23;;;22.80;58.80;;;;;;6242930;23;20038;-78
2023/03/07 12:10:48;;;;;;;34.75;26.40;;;22.90;58.60;;;;;;6244725;23;20082;-79
2023/03/07 12:13:53;;;;;;;33.03;24.17;;;23.40;56.30;;;;;;6245609;23;20000;-78
2023/03/07 12:16:43;;;;;;;29.85;22.15;;;23.30;56.00;;;;;;6242774;23;20500;-79
2023/03/07 12:19:19;;;;;;;29.40;22.70;;;23.30;56.40;;;;;;6244666;23;20338;-79
2023/03/07 12:22:11;;;;;;;27.13;19.38;;;23.30;56.20;;;;;;6243761;23;20000;-80
2023/03/07 12:24:44;;;;;;;28.58;20.40;;;23.60;56.90;;;;;;6244247;23;19999;-81
2023/03/07 12:27:23;;;;;;;26.20;21.15;;;24.10;55.10;;;;;;6243665;23;20499;-80
2023/03/07 12:29:53;;;;;;;28.08;20.63;;;24.50;52.50;;;;;;6244105;22;19996;-80
2023/03/07 12:32:24;;;;;;;25.63;20.90;;;24.50;52.80;;;;;;6242823;23;20004;-80
2023/03/07 12:35:03;;;;;;;25.92;21.35;;;24.00;51.70;;;;;;6244331;22;20003;-80
2023/03/07 12:38:14;;;;;;;30.27;21.35;;;23.70;52.70;;;;;;6243416;22;20079;-80
2023/03/07 12:40:55;;;;;;;;;;;23.10;52.80;;;;;;6161571;22;20028;-81
2023/03/07 12:43:39;;;;;;;24.75;18.65;;;22.90;53.70;;;;;;6244183;22;19903;-80